KORLMYGF

Guest
Details From KORL - Orando Executive
To MYGF - Grand Bahama Intl
Flight Number -
Tags generated
Created
Modified
Stats Distance 184 nm / 341 km
Max Altitude 15,200 ft / 4,633 m
Waypoints 4
Social Downloads 0
Likes 0
Share VATSIM

Download

Looking for another format? Having issues loading an existing format? Contact us
Advertisement - Login to hide

Notes

Basic altitude profile: - Ascent Rate: 2500ft/min - Ascent Speed: 250kts - Cruise Altitude: 35000ft - Cruise Speed: 420kts - Descent Rate: 1500ft/min - Descent Speed: 250kts

Route

KORL SQT BR1L JOLTS MYGF

ID Type Via Altitude Latitude Longitude Leg Dist Tot Dist Heading (true) Name
O KORL APT - 0 ft / 0 m 28.54537˚ -81.33326˚ - 0 nm - Orando Executive
SQT NDB - 15,200 ft / 4,633 m 28.09947˚ -80.70081˚ 42 nm 42 nm 129° / 129° SATELLITE NDB
JOLTS FIX BR1L (AWY-HI) 8,100 ft / 2,469 m 26.99311˚ -79.21421˚ 103 nm 146 nm 130° / 130° -
O MYGF APT - 0 ft / 0 m 26.55868˚ -78.69555˚ 38 nm 184 nm 133° / 133° Grand Bahama Intl

Altitude Profile

Advertisement - Login to hide

Weather


0- 5 10 15 20 25 30 35+ Temperature / ° C

Clouds and Precipitation
Forecast for 2017-12-14 00:00 UTC. Updated 2 hours ago

Ground ~20,000 ft ~40,000 ft Winds

KORL

Details ICAO KORL (ORL)
Name Orando Executive
Region United States
Timezone America/New_York (UTC-5.0)
Stats Elevation 112 ft / 34 m (AMSL)
Location 28.545372° -81.333261°
Runways 2
Magnetic Variation 6.402° W

METAR

KORL 132053Z AUTO 28012KT 10SM CLR 17/M04 A3004 RMK AO2 SLP177 T01671044 56010

Decode

TAF

Not found

Departure Runways

ID Width Length Bearing (true) Bearing (mag) Surface Threshold Offset Overrun Length
07 150 ft / 46 m 5,999 ft / 1,828 m 66.58° 72.98° Asphalt 0 ft / 0 m 0 ft / 0 m
13 100 ft / 30 m 4,640 ft / 1,414 m 130.99° 137.39° Asphalt 0 ft / 0 m 561 ft / 171 m
25 150 ft / 46 m 5,999 ft / 1,828 m 246.59° 252.99° Asphalt 0 ft / 0 m 0 ft / 0 m
31 100 ft / 30 m 4,640 ft / 1,414 m 311.00° 317.40° Asphalt 0 ft / 0 m 374 ft / 114 m

MYGF

Details ICAO MYGF (FPO)
Name Grand Bahama Intl
Region Bahamas
Timezone America/Nassau (UTC-5.0)
Stats Elevation 7 ft / 2 m (AMSL)
Location 26.558684° -78.695553°
Runways 1
Magnetic Variation 7.725° W

METAR

MYGF 132100Z 36008KT 9999 FEW030 20/10 A3002

Decode

TAF

TAF MYGF 131120Z 1312/1412 32010KT 9999 FEW025 BECMG 1400/1402 VRB02KT

Decode

Destination Runways

ID Width Length Bearing (true) Bearing (mag) Surface Threshold Offset Overrun Length
06 151 ft / 46 m 11,016 ft / 3,358 m 60.89° 68.61° Asphalt 0 ft / 0 m 194 ft / 59 m
24 151 ft / 46 m 11,016 ft / 3,358 m 240.91° 248.63° Asphalt 0 ft / 0 m 200 ft / 61 m

Approach Navaids

Runway Type Ident Frequency Range Bearing (true) Bearing (mag) Slope Elevation
06 Localiser IZFP 109.70 MHz 18 nm / 33 km 60.91° 68.63° - 7 ft / 2 m (AMSL)
06 Glidescope IZFP 109.70 MHz 10 nm / 19 km 60.90° 68.63° 3.00° 7 ft / 2 m (AMSL)